aviador You're here:

KHSV Decoded Metar

HUNTSVILLE in AL, USA
Report Time2018-01-17 17:53:00
UTC Time2018-01-17 18:17:58
Flight Rules vfr VFR
Wind340° at 13 kt
W.Decomp.*RWY 36: 12.3 kt HW 4.2 kt LCW
W.Rank340° ranks 14
Current wind is above 340° avg. (6.5)
Visibility9999 m
Phenomena:N/A
Clouds:Few 026 Hf
Expected CloudBase > 2,000 ft AGL from Temp-Dew spread
CeilingNone
Temp-7°C (ISA -21)
Dew Point-12°C (68% RH)
AAT-14.9°C
QNH1037 hPa
Density Alt-2,726 ft
Elevation627 ft
Report Wrong Elevation
Raw Report
KHSV 171753Z 34013KT 10SM FEW026 M07/M12 A3061 RMK AO2 SLP375
60000 T10671122 11067 21128 58004=

Extra information for KHSV:More info

Metar Taf Metar & Taf Last 4 Metars F.Rules Stats Wind Profile Meteogram Temp Stats Airport Information Weather charts Add Link Nearby VenuesMetar ALERT Operation Metar Decoded Social comments

AIRNAV info for KHSV